Weather at Surfside Seaplane Base

Public forecast

Using degrees Fahrenheit for public forecast. Weather courtesy of forecast.io.

Closest aviation weather report (METAR) to Surfside Seaplane Base

Closest report is Anoka County-Blaine (Janes Field) Airport, 4.0 nm (7.4 km) W.

2024/03/01 01:47 (retrieved 16 minutes ago)

KANE 010147Z 07004KT 10SM CLR 02/M06 A2991

Closest aviation forecast (TAF) to Surfside Seaplane Base

Closest forecast is Volk Field, 142.5 nm (263.9 km) ESE.

2024/02/29 20:45 Ammendment (retrieved 5 hours ago)

AMD KVOK 292036Z 2920/0123 19012G18KT 9999 SKC QNH3005INS BECMG 0114/0115 18020G30KT 9999 SKC 510009 QNH3000INS TX09/2921Z TNM02/0113Z LAST NO AMDS AFT 2921 NEXT 0109